Latest Coastal Weather Observations for Albion Park

IDN60701

Issued at 11:02 pm EST Saturday 30 July 2016 (issued every 10 minutes, with the page automatically refreshed every 10 minutes)

About coastal observations | Map of coastal stations | Coastal observations for NSW | Marine services | Other Formats
Station Details ID: 068241 Name: WOLLONGONG AIRPORT Lat: -34.56 Lon: 150.79 Height: 8.0 m
Data from the previous 72 hours. | See also: Recent months at Albion Park
Date/Time
EST
Temp
°C
Wind Pressure Rain since
9am
mm
Weather Cloud Vis
km
Sea
Height
m
Swell
Dir  Spd
kts
Gust
kts
hPa Trend Height
m
Period
s
Dir
30/10:30pm 7.2 WSW 2 5 1019.4 - 0.0 - - 10 - - - -
30/10:00pm 7.5 W 3 4 1019.7 - 0.0 - - 10 - - - -
30/09:30pm 7.4 W 4 5 1019.6 - 0.0 - - 10 - - - -
30/09:00pm 7.7 WSW 2 4 1019.5 - 0.0 - Mostly clear 10 - - - -
30/08:30pm 7.3 WSW 1 4 1019.5 - 0.0 - - 10 - - - -
30/08:00pm 8.3 W 3 5 1019.6 - 0.0 - - 10 - - - -
30/07:30pm 8.8 W 5 6 1019.7 - 0.0 - - 10 - - - -
30/07:00pm 9.5 WNW 5 7 1020.0 - 0.0 - - 10 - - - -
30/06:30pm 9.8 W 6 6 1019.9 - 0.0 - - 10 - - - -
30/06:00pm 10.1 W 6 7 1019.6 - 0.0 - - 10 - - - -
30/05:30pm 12.8 NNE 3 4 1019.4 - 0.0 - - 10 - - - -
30/05:00pm 14.9 NE 5 7 1019.5 - 0.0 - - 10 - - - -
30/04:30pm 15.8 NE 6 8 1019.5 - 0.0 - - 10 - - - -
30/04:00pm 16.7 ENE 6 9 1019.9 - 0.0 - Partly cloudy 10 - - - -
30/03:30pm 16.9 NE 6 8 1020.0 - 0.0 - - 10 - - - -
30/03:00pm 17.3 NE 7 10 1019.9 - 0.0 - - 10 - - - -
30/02:30pm 17.6 ESE 7 10 1019.9 - 0.0 - - 10 - - - -
30/02:00pm 17.7 E 9 12 1020.1 - 0.0 - - 10 - - - -
30/01:30pm 17.5 ESE 8 11 1020.4 - 0.0 - Partly cloudy 10 - - - -
30/01:00pm 18.2 SSE 6 8 1020.7 - 0.0 - - 10 - - - -
30/12:30pm 17.6 ESE 8 12 1021.2 - 0.0 - - 10 - - - -
30/12:00pm 17.7 ESE 8 11 1021.5 - 0.0 - Mostly clear 10 - - - -
30/11:30am 17.8 SSE 4 9 1022.0 - 0.0 - - 10 - - - -
30/11:00am 17.3 S 6 9 1022.2 - 0.0 - - 10 - - - -
30/10:30am 16.9 S 7 10 1022.6 - 0.0 - - 10 - - - -
30/10:00am 16.5 WSW 5 8 1022.6 - 0.0 - - 10 - - - -
30/09:30am 15.4 W 8 9 1022.7 - 0.0 - - 10 - - - -
30/09:00am 14.1 W 8 10 1022.7 - 0.0 - - 10 - - - -
30/08:30am 12.7 W 8 11 1022.8 - 0.0 - - 10 - - - -
30/08:00am 11.1 W 8 11 1022.6 - 0.0 - - 10 - - - -
30/07:30am 9.6 SW 8 11 1022.4 - 0.0 - - 10 - - - -
30/07:00am 7.9 W 4 6 1022.4 - 0.0 - - 10 - - - -
30/06:30am 7.9 SSW 7 9 1021.9 - 0.0 - - 10 - - - -
30/06:00am 9.0 WSW 4 7 1021.8 - 0.0 - - 10 - - - -
30/05:30am 8.8 WSW 6 8 1021.4 - 0.0 - - 10 - - - -
30/05:00am 9.5 WSW 9 12 1021.1 - 0.0 - - 10 - - - -
30/04:30am 9.9 SW 9 12 1020.8 - 0.0 - - 10 - - - -
30/04:00am 10.2 WSW 12 16 1020.8 - 0.0 - - 10 - - - -
30/03:30am 10.3 WSW 15 18 1020.8 - 0.0 - - 10 - - - -
30/03:00am 10.4 WSW 13 17 1020.8 - 0.0 - Mostly clear 10 - - - -
30/02:30am 11.1 WSW 16 19 1020.8 - 0.0 - - 10 - - - -
30/02:00am 11.4 WSW 17 22 1020.8 - 0.0 - - 10 - - - -
30/01:30am 11.2 WSW 12 15 1020.8 - 0.0 - - 10 - - - -
30/01:00am 11.7 SW 12 15 1020.7 - 0.0 - - 10 - - - -
30/12:30am 12.0 SW 17 25 1020.8 - 0.0 - - 10 - - - -
30/12:00am 11.7 WSW 17 21 1020.6 - 0.0 - Cloudy 10 - - - -
 
Date/Time
EST
Temp
°C
Wind Pressure Rain since
9am
mm
Weather Cloud Vis
km
Sea
Height
m
Swell
Dir  Spd
kts
Gust
kts
hPa Trend Height
m
Period
s
Dir
29/11:30pm 11.6 WSW 14 20 1020.6 - 0.0 - - 10 - - - -
29/11:00pm 11.4 WSW 11 17 1020.3 - 0.0 - - 10 - - - -
29/10:30pm 11.6 W 13 19 1020.3 - 0.0 - - 10 - - - -
29/10:07pm 11.8 WSW 15 25 1020.2 - 0.0 - - 10 - - - -
29/10:00pm 11.8 WSW 17 23 1020.2 - 0.0 - - 10 - - - -
29/09:30pm 11.6 WSW 18 24 1019.8 - 0.0 - - 10 - - - -
29/09:00pm 11.5 WSW 17 23 1019.8 - 0.0 - - 10 - - - -
29/08:30pm 11.7 W 13 16 1019.4 - 0.0 - - 10 - - - -
29/08:00pm 11.6 WSW 11 16 1019.2 - 0.0 - - 10 - - - -
29/07:30pm 12.0 WSW 18 25 1019.0 - 0.0 - - 10 - - - -
29/07:00pm 12.0 W 18 23 1018.5 - 0.0 - - 10 - - - -
29/06:30pm 12.3 W 21 29 1018.5 - 0.0 - - 10 - - - -
29/06:00pm 12.5 WNW 16 24 1018.4 - 0.0 - - 10 - - - -
29/05:58pm 12.5 WNW 15 23 1018.3 - 0.0 - - 10 - - - -
29/05:30pm 12.6 WNW 8 11 1018.3 - 0.0 - - 10 - - - -
29/05:00pm 13.9 W 6 10 1018.0 - 0.0 - - 10 - - - -
29/04:30pm 15.0 W 10 15 1017.6 - 0.0 - - 10 - - - -
29/04:00pm 15.8 W 12 18 1017.4 - 0.0 - - 10 - - - -
29/03:30pm 16.3 W 15 22 1017.5 - 0.0 - - 10 - - - -
29/03:28pm 16.4 W 15 25 1017.5 - 0.0 - - 10 - - - -
29/03:00pm 17.0 W 13 18 1017.6 - 0.0 - - 10 - - - -
29/02:30pm 17.5 W 16 23 1017.4 - 0.0 - - 10 - - - -
29/02:00pm 17.9 WSW 16 21 1017.6 - 0.0 - - 10 - - - -
29/01:30pm 18.5 W 11 15 1017.6 - 0.0 - - 10 - - - -
29/01:00pm 18.4 WNW 9 13 1018.1 - 0.0 - - 10 - - - -
29/12:30pm 18.6 NW 7 11 1018.7 - 0.0 - - 10 - - - -
29/12:00pm 16.3 E 5 7 1019.5 - 0.0 - - 10 - - - -
29/11:30am 16.5 ENE 6 8 1020.0 - 0.0 - - 10 - - - -
29/11:00am 15.3 NE 7 8 1020.7 - 0.0 - - 10 - - - -
29/10:30am 15.8 NNW 5 7 1021.1 - 0.0 - - 10 - - - -
29/10:00am 14.9 N 4 6 1021.4 - 0.0 - - 10 - - - -
29/09:30am 13.6 WNW 5 7 1021.4 - 0.0 - - 10 - - - -
29/09:00am 12.8 NNW 3 5 1021.6 - 0.0 - - 10 - - - -
29/08:30am 11.6 W 9 12 1021.6 - 0.0 - - 10 - - - -
29/08:00am 10.5 W 12 17 1022.0 - 0.0 - - 10 - - - -
29/07:30am 9.6 W 11 16 1022.0 - 0.0 - - 10 - - - -
29/07:00am 9.1 W 15 19 1021.9 - 0.0 - - 10 - - - -
29/06:30am 8.6 W 13 16 1021.8 - 0.0 - - 10 - - - -
29/06:00am 8.9 W 12 17 1021.6 - 0.0 - - 10 - - - -
29/05:30am 9.0 W 11 15 1021.3 - 0.0 - - 10 - - - -
29/05:00am 8.9 W 11 14 1021.1 - 0.0 - - 10 - - - -
29/04:30am 9.4 W 12 17 1020.9 - 0.0 - - 10 - - - -
29/04:00am 9.2 W 9 12 1020.7 - 0.0 - - 10 - - - -
29/03:30am 9.6 W 11 17 1021.0 - 0.0 - - 10 - - - -
29/03:00am 9.8 W 10 15 1021.4 - 0.0 - - 10 - - - -
29/02:30am 10.1 W 11 15 1021.5 - 0.0 - - 10 - - - -
29/02:00am 10.0 W 12 17 1021.4 - 0.0 - - 10 - - - -
29/01:30am 10.3 W 14 18 1021.5 - 0.0 - - 10 - - - -
29/01:00am 10.4 W 13 17 1021.7 - 0.0 - - 10 - - - -
29/12:30am 10.6 W 15 23 1021.7 - 0.0 - - 10 - - - -
29/12:00am 10.3 W 14 17 1021.6 - 0.0 - - 10 - - - -
 
Date/Time
EST
Temp
°C
Wind Pressure Rain since
9am
mm
Weather Cloud Vis
km
Sea
Height
m
Swell
Dir  Spd
kts
Gust
kts
hPa Trend Height
m
Period
s
Dir
28/11:30pm 11.0 WSW 19 24 1021.7 - 0.0 - - 10 - - - -
28/11:00pm 11.3 W 18 25 1021.8 - 0.0 - - 10 - - - -
28/10:30pm 11.4 W 15 21 1021.9 - 0.0 - - 10 - - - -
28/10:00pm 11.3 WSW 21 26 1021.5 - 0.0 - - 10 - - - -
28/09:30pm 11.2 W 23 32 1021.7 - 0.0 - - 10 - - - -
28/09:06pm 11.4 W 19 29 1021.8 - 0.0 - - 10 - - - -
28/09:00pm 11.3 W 17 25 1021.9 - 0.0 - - 10 - - - -
28/08:30pm 11.8 WSW 20 26 1021.7 - 0.0 - - 10 - - - -
28/08:00pm 12.0 WSW 21 24 1021.6 - 0.0 - - 10 - - - -
28/07:30pm 11.9 WSW 18 25 1021.7 - 0.0 - - 10 - - - -
28/07:00pm 12.1 W 18 26 1021.3 - 0.0 - - 10 - - - -
28/06:30pm 11.9 W 18 25 1021.2 - 0.0 - - 10 - - - -
28/06:00pm 12.7 WNW 14 22 1021.2 - 0.0 - - 10 - - - -
28/05:30pm 12.8 NW 11 15 1021.3 - 0.0 - - 10 - - - -
28/05:00pm 14.0 WNW 12 18 1021.0 - 0.0 - - 10 - - - -
28/04:30pm 15.1 W 14 19 1020.8 - 0.0 - - 10 - - - -
28/04:00pm 16.0 W 14 23 1020.5 - 0.0 - - 10 - - - -
28/03:30pm 16.9 WNW 12 18 1020.2 - 0.0 - - 10 - - - -
28/03:00pm 17.3 WNW 19 24 1020.3 - 0.0 - - 10 - - - -
28/02:30pm 18.2 WNW 10 15 1020.2 - 0.0 - - 10 - - - -
28/02:00pm 18.1 WNW 12 15 1020.3 - 0.0 - - 10 - - - -
28/01:30pm 18.2 W 13 18 1020.4 - 0.0 - - 10 - - - -
28/01:00pm 18.6 WNW 8 12 1020.9 - 0.0 - - 10 - - - -
28/12:30pm 17.9 WNW 9 13 1021.4 - 0.0 - - 10 - - - -
28/12:00pm 17.8 WNW 9 12 1021.8 - 0.0 - - 10 - - - -
28/11:30am 17.5 W 3 6 1022.5 - 0.0 - - 10 - - - -
28/11:00am 16.7 W 7 9 1022.9 - 0.0 - - 10 - - - -
28/10:30am 16.4 WNW 7 10 1023.2 - 0.0 - - 10 - - - -
28/10:00am 15.1 W 10 13 1023.4 - 0.0 - - 10 - - - -
28/09:30am 14.3 W 12 16 1023.4 - 0.0 - - 10 - - - -
28/09:00am 13.5 W 11 15 1023.4 - 0.0 - - 10 - - - -
28/08:30am 12.4 WSW 12 16 1023.3 - 0.0 - - 10 - - - -
28/08:00am 11.5 WSW 11 16 1023.3 - 0.0 - - 10 - - - -
28/07:30am 10.7 W 12 16 1023.2 - 0.0 - - 10 - - - -
28/07:00am 10.3 WSW 13 18 1022.8 - 0.0 - - 10 - - - -
28/06:30am 10.4 W 15 20 1022.3 - 0.0 - - 10 - - - -
28/06:00am 10.7 WSW 19 24 1021.8 - 0.0 - - 10 - - - -
28/05:47am 10.7 W 12 23 1021.6 - 0.0 - - 10 - - - -
28/05:30am 10.8 WNW 6 9 1021.3 - 0.0 - - 10 - - - -
28/05:00am 10.6 WSW 14 21 1020.4 - 0.0 - - 10 - - - -
28/04:30am 11.1 WSW 18 24 1020.5 - 0.0 - - 10 - - - -
28/04:00am 11.2 W 16 23 1020.2 - 0.0 - - 10 - - - -
28/03:30am 11.3 W 15 21 1020.0 - 0.0 - - 10 - - - -
28/03:00am 11.6 W 14 19 1019.9 - 0.0 - - 10 - - - -
28/02:30am 11.7 W 15 21 1020.0 - 0.0 - - 10 - - - -
28/02:22am 11.9 W 17 27 1020.0 - 0.0 - - 10 - - - -
28/02:17am 12.0 W 18 27 1019.8 - 0.0 - - 10 - - - -
28/02:00am 11.9 WSW 12 17 1020.0 - 0.0 - - 10 - - - -
28/01:30am 12.0 WSW 18 23 1020.2 - 0.0 - - 10 - - - -
28/01:00am 12.3 W 15 21 1020.5 - 0.0 - - 10 - - - -
28/12:30am 12.1 W 11 23 1020.3 - 0.0 - - 10 - - - -
28/12:00am 12.3 W 17 24 1020.0 - 0.0 - - 10 - - - -
 
Date/Time
EST
Temp
°C
Wind Pressure Rain since
9am
mm
Weather Cloud Vis
km
Sea
Height
m
Swell
Dir  Spd
kts
Gust
kts
hPa Trend Height
m
Period
s
Dir
27/11:37pm 12.6 WSW 18 28 1019.7 - 0.0 - - 10 - - - -
27/11:30pm 12.3 WSW 15 22 1019.7 - 0.0 - - 10 - - - -

Other Formats:

Comma delimited format used in spreadsheet applications
http://www.bom.gov.au/fwo/IDN60701/IDN60701.95748.axf

JavaScript Object Notation format (JSON) in row-major order
http://www.bom.gov.au/fwo/IDN60701/IDN60701.95748.json